sensor_id;sensor_type;location;lat;lon;timestamp;temperature;humidity
53800;DHT22;39708;53.210;6.948;2022-12-07T00:01:23;2.30;99.90
53800;DHT22;39708;53.210;6.948;2022-12-07T00:03:52;2.40;99.90
53800;DHT22;39708;53.210;6.948;2022-12-07T00:06:18;2.40;99.90
53800;DHT22;39708;53.210;6.948;2022-12-07T00:08:45;2.40;99.90
53800;DHT22;39708;53.210;6.948;2022-12-07T00:11:15;2.40;99.90
53800;DHT22;39708;53.210;6.948;2022-12-07T00:13:42;2.50;99.90
53800;DHT22;39708;53.210;6.948;2022-12-07T00:16:12;2.60;99.90
53800;DHT22;39708;53.210;6.948;2022-12-07T00:18:39;3.80;99.90
53800;DHT22;39708;53.210;6.948;2022-12-07T00:21:08;2.70;99.90
53800;DHT22;39708;53.210;6.948;2022-12-07T00:23:34;2.60;99.90
53800;DHT22;39708;53.210;6.948;2022-12-07T00:26:18;2.60;99.90
53800;DHT22;39708;53.210;6.948;2022-12-07T00:28:49;2.60;99.90
53800;DHT22;39708;53.210;6.948;2022-12-07T00:31:16;2.50;99.90
53800;DHT22;39708;53.210;6.948;2022-12-07T00:33:42;2.50;99.90
53800;DHT22;39708;53.210;6.948;2022-12-07T00:36:14;3.00;99.90
53800;DHT22;39708;53.210;6.948;2022-12-07T00:38:41;2.50;99.90
53800;DHT22;39708;53.210;6.948;2022-12-07T00:41:19;2.40;99.90
53800;DHT22;39708;53.210;6.948;2022-12-07T00:43:46;2.50;99.90
53800;DHT22;39708;53.210;6.948;2022-12-07T00:46:13;3.80;99.90
53800;DHT22;39708;53.210;6.948;2022-12-07T00:48:39;2.50;99.90
53800;DHT22;39708;53.210;6.948;2022-12-07T00:51:06;2.70;99.90
53800;DHT22;39708;53.210;6.948;2022-12-07T00:53:34;4.20;99.90
53800;DHT22;39708;53.210;6.948;2022-12-07T00:56:16;3.40;99.90
53800;DHT22;39708;53.210;6.948;2022-12-07T00:58:42;3.10;99.90
53800;DHT22;39708;53.210;6.948;2022-12-07T01:01:09;3.20;99.90
53800;DHT22;39708;53.210;6.948;2022-12-07T01:03:35;3.30;99.90
53800;DHT22;39708;53.210;6.948;2022-12-07T01:06:01;3.30;99.90
53800;DHT22;39708;53.210;6.948;2022-12-07T01:08:27;3.40;99.90
53800;DHT22;39708;53.210;6.948;2022-12-07T01:11:07;3.30;99.90
53800;DHT22;39708;53.210;6.948;2022-12-07T01:13:36;3.30;99.90
53800;DHT22;39708;53.210;6.948;2022-12-07T01:16:04;3.30;99.90
53800;DHT22;39708;53.210;6.948;2022-12-07T01:18:32;3.30;99.90
53800;DHT22;39708;53.210;6.948;2022-12-07T01:21:05;3.30;99.90
53800;DHT22;39708;53.210;6.948;2022-12-07T01:23:32;3.30;99.90
53800;DHT22;39708;53.210;6.948;2022-12-07T01:26:00;3.30;99.90
53800;DHT22;39708;53.210;6.948;2022-12-07T01:28:27;3.80;99.90
53800;DHT22;39708;53.210;6.948;2022-12-07T01:31:01;3.40;99.90
53800;DHT22;39708;53.210;6.948;2022-12-07T01:33:29;3.40;99.90
53800;DHT22;39708;53.210;6.948;2022-12-07T01:36:02;3.40;99.90
53800;DHT22;39708;53.210;6.948;2022-12-07T01:38:29;5.00;99.90
53800;DHT22;39708;53.210;6.948;2022-12-07T01:40:56;3.40;99.90
53800;DHT22;39708;53.210;6.948;2022-12-07T01:43:22;3.50;99.90
53800;DHT22;39708;53.210;6.948;2022-12-07T01:45:49;3.50;99.90
53800;DHT22;39708;53.210;6.948;2022-12-07T01:48:17;3.40;99.90
53800;DHT22;39708;53.210;6.948;2022-12-07T01:50:45;3.40;99.90
53800;DHT22;39708;53.210;6.948;2022-12-07T01:53:14;3.30;99.90
53800;DHT22;39708;53.210;6.948;2022-12-07T01:55:42;3.30;99.90
53800;DHT22;39708;53.210;6.948;2022-12-07T01:58:10;3.30;99.90
53800;DHT22;39708;53.210;6.948;2022-12-07T02:00:36;3.30;99.90
53800;DHT22;39708;53.210;6.948;2022-12-07T02:03:50;3.30;99.90
53800;DHT22;39708;53.210;6.948;2022-12-07T02:05:58;3.40;99.90
53800;DHT22;39708;53.210;6.948;2022-12-07T02:08:24;3.40;99.90
53800;DHT22;39708;53.210;6.948;2022-12-07T02:10:50;3.50;99.90
53800;DHT22;39708;53.210;6.948;2022-12-07T02:13:22;3.50;99.90
53800;DHT22;39708;53.210;6.948;2022-12-07T02:27:30;3.50;99.90
53800;DHT22;39708;53.210;6.948;2022-12-07T02:33:08;3.40;99.90
53800;DHT22;39708;53.210;6.948;2022-12-07T02:41:40;3.10;99.90
53800;DHT22;39708;53.210;6.948;2022-12-07T02:44:11;3.00;99.90
53800;DHT22;39708;53.210;6.948;2022-12-07T02:46:42;2.90;99.90
53800;DHT22;39708;53.210;6.948;2022-12-07T02:49:09;2.90;99.90
53800;DHT22;39708;53.210;6.948;2022-12-07T02:51:55;2.90;99.90
53800;DHT22;39708;53.210;6.948;2022-12-07T02:54:21;3.00;99.90
53800;DHT22;39708;53.210;6.948;2022-12-07T02:57:12;2.70;99.90
53800;DHT22;39708;53.210;6.948;2022-12-07T02:59:55;2.70;99.90
53800;DHT22;39708;53.210;6.948;2022-12-07T03:12:44;2.90;99.90
53800;DHT22;39708;53.210;6.948;2022-12-07T03:15:15;3.00;99.90
53800;DHT22;39708;53.210;6.948;2022-12-07T03:17:46;3.00;99.90
53800;DHT22;39708;53.210;6.948;2022-12-07T03:20:16;3.10;99.90
53800;DHT22;39708;53.210;6.948;2022-12-07T03:22:44;3.10;99.90
53800;DHT22;39708;53.210;6.948;2022-12-07T03:25:14;3.50;99.90
53800;DHT22;39708;53.210;6.948;2022-12-07T03:27:53;3.20;99.90
53800;DHT22;39708;53.210;6.948;2022-12-07T03:30:28;3.20;99.90
53800;DHT22;39708;53.210;6.948;2022-12-07T03:32:59;3.20;99.90
53800;DHT22;39708;53.210;6.948;2022-12-07T03:35:42;3.00;99.90
53800;DHT22;39708;53.210;6.948;2022-12-07T03:38:25;3.00;99.90
53800;DHT22;39708;53.210;6.948;2022-12-07T03:41:05;2.90;99.90
53800;DHT22;39708;53.210;6.948;2022-12-07T03:43:32;2.80;99.90
53800;DHT22;39708;53.210;6.948;2022-12-07T03:49:06;2.80;99.90
53800;DHT22;39708;53.210;6.948;2022-12-07T03:54:14;2.60;99.90
53800;DHT22;39708;53.210;6.948;2022-12-07T03:56:43;2.60;99.90
53800;DHT22;39708;53.210;6.948;2022-12-07T03:59:10;2.80;99.90
53800;DHT22;39708;53.210;6.948;2022-12-07T04:01:36;2.80;99.90
53800;DHT22;39708;53.210;6.948;2022-12-07T04:04:02;2.90;99.90
53800;DHT22;39708;53.210;6.948;2022-12-07T04:06:28;2.90;99.90
53800;DHT22;39708;53.210;6.948;2022-12-07T04:08:53;2.90;99.90
53800;DHT22;39708;53.210;6.948;2022-12-07T04:11:19;2.90;99.90
53800;DHT22;39708;53.210;6.948;2022-12-07T04:13:44;3.20;99.90
53800;DHT22;39708;53.210;6.948;2022-12-07T04:16:29;2.90;99.90
53800;DHT22;39708;53.210;6.948;2022-12-07T04:18:54;3.20;99.90
53800;DHT22;39708;53.210;6.948;2022-12-07T04:21:20;2.70;99.90
53800;DHT22;39708;53.210;6.948;2022-12-07T04:23:45;2.70;99.90
53800;DHT22;39708;53.210;6.948;2022-12-07T04:26:11;2.70;99.90
53800;DHT22;39708;53.210;6.948;2022-12-07T04:28:37;2.60;99.90
53800;DHT22;39708;53.210;6.948;2022-12-07T04:31:02;2.60;99.90
53800;DHT22;39708;53.210;6.948;2022-12-07T04:33:28;2.50;99.90
53800;DHT22;39708;53.210;6.948;2022-12-07T04:35:53;2.50;99.90
53800;DHT22;39708;53.210;6.948;2022-12-07T04:38:19;2.40;99.90
53800;DHT22;39708;53.210;6.948;2022-12-07T04:40:45;2.80;99.90
53800;DHT22;39708;53.210;6.948;2022-12-07T04:43:10;2.40;99.90
53800;DHT22;39708;53.210;6.948;2022-12-07T04:45:36;2.40;99.90
53800;DHT22;39708;53.210;6.948;2022-12-07T04:48:01;2.50;99.90
53800;DHT22;39708;53.210;6.948;2022-12-07T04:50:27;2.50;99.90
53800;DHT22;39708;53.210;6.948;2022-12-07T04:52:53;2.50;99.90
53800;DHT22;39708;53.210;6.948;2022-12-07T04:55:18;2.50;99.90
53800;DHT22;39708;53.210;6.948;2022-12-07T04:57:44;2.50;99.90
53800;DHT22;39708;53.210;6.948;2022-12-07T05:00:10;2.50;99.90
53800;DHT22;39708;53.210;6.948;2022-12-07T05:02:36;2.60;99.90
53800;DHT22;39708;53.210;6.948;2022-12-07T05:05:01;3.70;99.90
53800;DHT22;39708;53.210;6.948;2022-12-07T05:07:27;2.70;99.90
53800;DHT22;39708;53.210;6.948;2022-12-07T05:09:52;3.00;99.90
53800;DHT22;39708;53.210;6.948;2022-12-07T05:12:18;2.70;99.90
53800;DHT22;39708;53.210;6.948;2022-12-07T05:14:44;2.70;99.90
53800;DHT22;39708;53.210;6.948;2022-12-07T05:17:09;2.70;99.90
53800;DHT22;39708;53.210;6.948;2022-12-07T05:19:36;2.60;99.90
53800;DHT22;39708;53.210;6.948;2022-12-07T05:22:02;2.60;99.90
53800;DHT22;39708;53.210;6.948;2022-12-07T05:24:28;2.60;99.90
53800;DHT22;39708;53.210;6.948;2022-12-07T05:26:53;2.50;99.90
53800;DHT22;39708;53.210;6.948;2022-12-07T05:29:19;2.50;99.90
53800;DHT22;39708;53.210;6.948;2022-12-07T05:31:45;2.40;99.90
53800;DHT22;39708;53.210;6.948;2022-12-07T05:34:11;2.40;99.90
53800;DHT22;39708;53.210;6.948;2022-12-07T05:36:37;2.40;99.90
53800;DHT22;39708;53.210;6.948;2022-12-07T05:39:03;2.30;99.90
53800;DHT22;39708;53.210;6.948;2022-12-07T05:41:28;2.30;99.90
53800;DHT22;39708;53.210;6.948;2022-12-07T05:44:12;2.30;99.90
53800;DHT22;39708;53.210;6.948;2022-12-07T05:46:38;2.20;99.90
53800;DHT22;39708;53.210;6.948;2022-12-07T05:49:04;2.10;99.90
53800;DHT22;39708;53.210;6.948;2022-12-07T05:51:30;2.10;99.90
53800;DHT22;39708;53.210;6.948;2022-12-07T05:53:56;2.00;99.90
53800;DHT22;39708;53.210;6.948;2022-12-07T05:56:21;2.00;99.90
53800;DHT22;39708;53.210;6.948;2022-12-07T05:58:48;2.00;99.90
53800;DHT22;39708;53.210;6.948;2022-12-07T06:01:32;2.00;99.90
53800;DHT22;39708;53.210;6.948;2022-12-07T06:03:58;2.00;99.90
53800;DHT22;39708;53.210;6.948;2022-12-07T06:06:23;2.40;99.90
53800;DHT22;39708;53.210;6.948;2022-12-07T06:08:49;2.00;99.90
53800;DHT22;39708;53.210;6.948;2022-12-07T06:11:15;2.60;99.90
53800;DHT22;39708;53.210;6.948;2022-12-07T06:13:59;2.00;99.90
53800;DHT22;39708;53.210;6.948;2022-12-07T06:16:25;2.00;99.90
53800;DHT22;39708;53.210;6.948;2022-12-07T06:18:50;2.00;99.90
53800;DHT22;39708;53.210;6.948;2022-12-07T06:21:16;2.00;99.90
53800;DHT22;39708;53.210;6.948;2022-12-07T06:23:41;2.00;99.90
53800;DHT22;39708;53.210;6.948;2022-12-07T06:26:07;1.90;99.90
53800;DHT22;39708;53.210;6.948;2022-12-07T06:28:33;1.90;99.90
53800;DHT22;39708;53.210;6.948;2022-12-07T06:30:59;1.90;99.90
53800;DHT22;39708;53.210;6.948;2022-12-07T06:33:26;1.90;99.90
53800;DHT22;39708;53.210;6.948;2022-12-07T06:35:52;2.00;99.90
53800;DHT22;39708;53.210;6.948;2022-12-07T06:38:17;2.10;99.90
53800;DHT22;39708;53.210;6.948;2022-12-07T06:40:43;2.10;99.90
53800;DHT22;39708;53.210;6.948;2022-12-07T06:43:09;2.20;99.90
53800;DHT22;39708;53.210;6.948;2022-12-07T06:45:34;2.10;99.90
53800;DHT22;39708;53.210;6.948;2022-12-07T06:48:00;2.10;99.90
53800;DHT22;39708;53.210;6.948;2022-12-07T06:50:26;2.10;99.90
53800;DHT22;39708;53.210;6.948;2022-12-07T06:52:51;2.00;99.90
53800;DHT22;39708;53.210;6.948;2022-12-07T06:55:17;2.00;99.90
53800;DHT22;39708;53.210;6.948;2022-12-07T06:57:43;2.00;99.90
53800;DHT22;39708;53.210;6.948;2022-12-07T07:00:09;2.00;99.90
53800;DHT22;39708;53.210;6.948;2022-12-07T07:02:35;1.90;99.90
53800;DHT22;39708;53.210;6.948;2022-12-07T07:05:01;1.90;99.90
53800;DHT22;39708;53.210;6.948;2022-12-07T07:07:27;1.80;99.90
53800;DHT22;39708;53.210;6.948;2022-12-07T07:09:52;1.80;99.90
53800;DHT22;39708;53.210;6.948;2022-12-07T07:12:18;3.20;99.90
53800;DHT22;39708;53.210;6.948;2022-12-07T07:14:44;1.70;99.90
53800;DHT22;39708;53.210;6.948;2022-12-07T07:17:09;1.50;99.90
53800;DHT22;39708;53.210;6.948;2022-12-07T07:19:35;1.50;99.90
53800;DHT22;39708;53.210;6.948;2022-12-07T07:22:02;1.40;99.90
53800;DHT22;39708;53.210;6.948;2022-12-07T07:24:28;1.80;99.90
53800;DHT22;39708;53.210;6.948;2022-12-07T07:26:54;1.30;99.90
53800;DHT22;39708;53.210;6.948;2022-12-07T07:29:19;1.30;99.90
53800;DHT22;39708;53.210;6.948;2022-12-07T07:31:45;1.20;99.90
53800;DHT22;39708;53.210;6.948;2022-12-07T07:34:11;1.10;99.90
53800;DHT22;39708;53.210;6.948;2022-12-07T07:36:36;1.10;99.90
53800;DHT22;39708;53.210;6.948;2022-12-07T07:39:03;1.10;99.90
53800;DHT22;39708;53.210;6.948;2022-12-07T07:41:28;1.10;99.90
53800;DHT22;39708;53.210;6.948;2022-12-07T07:43:54;1.00;99.90
53800;DHT22;39708;53.210;6.948;2022-12-07T07:46:20;1.10;99.90
53800;DHT22;39708;53.210;6.948;2022-12-07T07:48:45;1.20;99.90
53800;DHT22;39708;53.210;6.948;2022-12-07T07:51:11;1.30;99.90
53800;DHT22;39708;53.210;6.948;2022-12-07T07:53:37;1.40;99.90
53800;DHT22;39708;53.210;6.948;2022-12-07T07:56:02;1.50;99.90
53800;DHT22;39708;53.210;6.948;2022-12-07T07:58:28;1.60;99.90
53800;DHT22;39708;53.210;6.948;2022-12-07T08:00:54;1.70;99.90
53800;DHT22;39708;53.210;6.948;2022-12-07T08:03:20;1.70;99.90
53800;DHT22;39708;53.210;6.948;2022-12-07T08:05:45;1.70;99.90
53800;DHT22;39708;53.210;6.948;2022-12-07T08:08:11;1.80;99.90
53800;DHT22;39708;53.210;6.948;2022-12-07T08:10:37;1.80;99.90
53800;DHT22;39708;53.210;6.948;2022-12-07T08:13:03;1.90;99.90
53800;DHT22;39708;53.210;6.948;2022-12-07T08:15:41;2.00;99.90
53800;DHT22;39708;53.210;6.948;2022-12-07T08:18:07;2.00;99.90
53800;DHT22;39708;53.210;6.948;2022-12-07T08:20:34;2.10;99.90
53800;DHT22;39708;53.210;6.948;2022-12-07T08:23:00;2.10;99.90
53800;DHT22;39708;53.210;6.948;2022-12-07T08:25:26;2.20;99.90
53800;DHT22;39708;53.210;6.948;2022-12-07T08:27:53;2.20;99.90
53800;DHT22;39708;53.210;6.948;2022-12-07T08:30:19;2.30;99.90
53800;DHT22;39708;53.210;6.948;2022-12-07T08:32:46;2.40;99.90
53800;DHT22;39708;53.210;6.948;2022-12-07T08:35:12;2.50;99.90
53800;DHT22;39708;53.210;6.948;2022-12-07T08:37:38;2.50;99.90
53800;DHT22;39708;53.210;6.948;2022-12-07T08:40:05;2.60;99.90
53800;DHT22;39708;53.210;6.948;2022-12-07T08:42:31;2.60;99.90
53800;DHT22;39708;53.210;6.948;2022-12-07T08:45:07;2.70;99.90
53800;DHT22;39708;53.210;6.948;2022-12-07T08:47:45;2.70;99.90
53800;DHT22;39708;53.210;6.948;2022-12-07T08:50:12;2.80;99.90
53800;DHT22;39708;53.210;6.948;2022-12-07T08:52:39;2.90;99.90
53800;DHT22;39708;53.210;6.948;2022-12-07T08:55:06;3.10;99.90
53800;DHT22;39708;53.210;6.948;2022-12-07T08:57:33;2.90;99.90
53800;DHT22;39708;53.210;6.948;2022-12-07T08:59:59;2.70;99.90
53800;DHT22;39708;53.210;6.948;2022-12-07T09:02:25;2.60;99.90
53800;DHT22;39708;53.210;6.948;2022-12-07T09:04:51;2.50;99.90
53800;DHT22;39708;53.210;6.948;2022-12-07T09:07:17;2.50;99.90
53800;DHT22;39708;53.210;6.948;2022-12-07T09:09:42;2.30;99.90
53800;DHT22;39708;53.210;6.948;2022-12-07T09:12:08;2.20;99.90
53800;DHT22;39708;53.210;6.948;2022-12-07T09:14:34;2.20;99.90
53800;DHT22;39708;53.210;6.948;2022-12-07T09:17:10;2.10;99.90
53800;DHT22;39708;53.210;6.948;2022-12-07T09:19:36;1.90;99.90
53800;DHT22;39708;53.210;6.948;2022-12-07T09:22:02;1.80;99.90
53800;DHT22;39708;53.210;6.948;2022-12-07T09:24:28;1.80;99.90
53800;DHT22;39708;53.210;6.948;2022-12-07T09:26:54;1.90;99.90
53800;DHT22;39708;53.210;6.948;2022-12-07T09:29:19;2.10;99.90
53800;DHT22;39708;53.210;6.948;2022-12-07T09:31:45;3.20;99.90
53800;DHT22;39708;53.210;6.948;2022-12-07T09:34:10;2.50;99.90
53800;DHT22;39708;53.210;6.948;2022-12-07T09:36:36;2.60;99.90
53800;DHT22;39708;53.210;6.948;2022-12-07T09:39:02;2.70;99.90
53800;DHT22;39708;53.210;6.948;2022-12-07T09:41:30;2.90;99.90
53800;DHT22;39708;53.210;6.948;2022-12-07T09:44:04;3.00;99.90
53800;DHT22;39708;53.210;6.948;2022-12-07T09:46:34;3.10;99.90
53800;DHT22;39708;53.210;6.948;2022-12-07T09:49:00;3.30;99.90
53800;DHT22;39708;53.210;6.948;2022-12-07T09:51:26;3.30;99.90
53800;DHT22;39708;53.210;6.948;2022-12-07T09:53:54;3.40;99.90
53800;DHT22;39708;53.210;6.948;2022-12-07T09:56:22;3.50;99.90
53800;DHT22;39708;53.210;6.948;2022-12-07T09:58:50;3.50;99.90
53800;DHT22;39708;53.210;6.948;2022-12-07T10:01:18;3.70;99.90
53800;DHT22;39708;53.210;6.948;2022-12-07T10:03:58;3.60;99.90
53800;DHT22;39708;53.210;6.948;2022-12-07T10:06:24;3.60;99.90
53800;DHT22;39708;53.210;6.948;2022-12-07T10:08:50;3.60;99.90
53800;DHT22;39708;53.210;6.948;2022-12-07T10:11:16;5.20;99.90
53800;DHT22;39708;53.210;6.948;2022-12-07T10:13:47;3.90;99.90
53800;DHT22;39708;53.210;6.948;2022-12-07T10:16:38;4.00;99.90
53800;DHT22;39708;53.210;6.948;2022-12-07T10:19:31;4.10;99.90
53800;DHT22;39708;53.210;6.948;2022-12-07T10:22:14;4.20;99.90
53800;DHT22;39708;53.210;6.948;2022-12-07T10:24:43;4.40;99.90
53800;DHT22;39708;53.210;6.948;2022-12-07T10:27:30;4.50;99.90
53800;DHT22;39708;53.210;6.948;2022-12-07T10:29:57;4.60;99.90
53800;DHT22;39708;53.210;6.948;2022-12-07T10:32:35;4.70;99.90
53800;DHT22;39708;53.210;6.948;2022-12-07T10:35:23;4.60;99.90
53800;DHT22;39708;53.210;6.948;2022-12-07T10:37:50;4.80;99.90
53800;DHT22;39708;53.210;6.948;2022-12-07T10:45:32;4.80;99.90
53800;DHT22;39708;53.210;6.948;2022-12-07T10:48:09;4.50;99.90
53800;DHT22;39708;53.210;6.948;2022-12-07T10:53:38;3.90;99.90
53800;DHT22;39708;53.210;6.948;2022-12-07T11:08:05;2.90;99.90
53800;DHT22;39708;53.210;6.948;2022-12-07T11:10:55;2.80;99.90
53800;DHT22;39708;53.210;6.948;2022-12-07T11:16:30;3.10;99.90
53800;DHT22;39708;53.210;6.948;2022-12-07T11:24:32;3.20;99.90
53800;DHT22;39708;53.210;6.948;2022-12-07T11:27:27;3.40;99.90
53800;DHT22;39708;53.210;6.948;2022-12-07T11:32:54;3.40;99.90
53800;DHT22;39708;53.210;6.948;2022-12-07T11:35:40;3.80;99.90
53800;DHT22;39708;53.210;6.948;2022-12-07T11:39:09;3.90;99.90
53800;DHT22;39708;53.210;6.948;2022-12-07T11:41:09;4.20;99.90
53800;DHT22;39708;53.210;6.948;2022-12-07T11:44:07;4.40;99.90
53800;DHT22;39708;53.210;6.948;2022-12-07T11:46:50;4.60;99.90
53800;DHT22;39708;53.210;6.948;2022-12-07T11:49:40;4.80;99.90
53800;DHT22;39708;53.210;6.948;2022-12-07T11:53:01;4.90;99.90
53800;DHT22;39708;53.210;6.948;2022-12-07T11:55:01;5.10;99.90
53800;DHT22;39708;53.210;6.948;2022-12-07T11:57:41;5.20;99.90
53800;DHT22;39708;53.210;6.948;2022-12-07T12:00:14;5.30;99.90
53800;DHT22;39708;53.210;6.948;2022-12-07T12:02:53;5.30;99.90
53800;DHT22;39708;53.210;6.948;2022-12-07T12:05:22;6.00;99.90
53800;DHT22;39708;53.210;6.948;2022-12-07T12:10:55;5.30;99.90
53800;DHT22;39708;53.210;6.948;2022-12-07T12:16:38;5.20;99.90
53800;DHT22;39708;53.210;6.948;2022-12-07T12:19:22;5.20;99.90
53800;DHT22;39708;53.210;6.948;2022-12-07T12:21:49;5.20;99.90
53800;DHT22;39708;53.210;6.948;2022-12-07T12:24:23;5.10;99.90
53800;DHT22;39708;53.210;6.948;2022-12-07T12:27:05;5.10;99.90
53800;DHT22;39708;53.210;6.948;2022-12-07T12:29:37;5.10;99.90
53800;DHT22;39708;53.210;6.948;2022-12-07T12:32:37;5.00;99.90
53800;DHT22;39708;53.210;6.948;2022-12-07T12:35:31;5.00;99.90
53800;DHT22;39708;53.210;6.948;2022-12-07T12:38:24;4.90;99.90
53800;DHT22;39708;53.210;6.948;2022-12-07T12:40:50;4.90;99.90
53800;DHT22;39708;53.210;6.948;2022-12-07T12:43:48;4.80;99.90
53800;DHT22;39708;53.210;6.948;2022-12-07T12:51:51;4.90;99.90
53800;DHT22;39708;53.210;6.948;2022-12-07T12:59:36;4.90;99.90
53800;DHT22;39708;53.210;6.948;2022-12-07T13:15:48;4.60;99.90
53800;DHT22;39708;53.210;6.948;2022-12-07T13:28:49;4.60;99.90
53800;DHT22;39708;53.210;6.948;2022-12-07T13:31:30;4.50;99.90
53800;DHT22;39708;53.210;6.948;2022-12-07T13:33:57;4.50;99.90
53800;DHT22;39708;53.210;6.948;2022-12-07T13:36:25;4.60;99.90
53800;DHT22;39708;53.210;6.948;2022-12-07T13:38:57;5.50;99.90
53800;DHT22;39708;53.210;6.948;2022-12-07T13:41:27;4.50;99.90
53800;DHT22;39708;53.210;6.948;2022-12-07T13:44:09;4.80;99.90
53800;DHT22;39708;53.210;6.948;2022-12-07T13:49:30;4.50;99.90
53800;DHT22;39708;53.210;6.948;2022-12-07T13:52:16;4.50;99.90
53800;DHT22;39708;53.210;6.948;2022-12-07T13:54:56;4.50;99.90
53800;DHT22;39708;53.210;6.948;2022-12-07T13:57:22;4.50;99.90
53800;DHT22;39708;53.210;6.948;2022-12-07T13:59:49;4.50;99.90
53800;DHT22;39708;53.210;6.948;2022-12-07T14:02:19;4.50;99.90
53800;DHT22;39708;53.210;6.948;2022-12-07T14:04:48;4.60;99.90
53800;DHT22;39708;53.210;6.948;2022-12-07T14:09:56;4.90;99.90
53800;DHT22;39708;53.210;6.948;2022-12-07T14:12:23;4.40;99.90
53800;DHT22;39708;53.210;6.948;2022-12-07T14:14:50;4.40;99.90
53800;DHT22;39708;53.210;6.948;2022-12-07T14:17:18;4.30;99.90
53800;DHT22;39708;53.210;6.948;2022-12-07T14:22:34;4.20;99.90
53800;DHT22;39708;53.210;6.948;2022-12-07T14:25:21;4.10;99.90
53800;DHT22;39708;53.210;6.948;2022-12-07T14:27:50;4.00;99.90
53800;DHT22;39708;53.210;6.948;2022-12-07T14:30:17;3.90;99.90
53800;DHT22;39708;53.210;6.948;2022-12-07T14:32:44;3.80;99.90
53800;DHT22;39708;53.210;6.948;2022-12-07T14:35:15;3.80;99.90
53800;DHT22;39708;53.210;6.948;2022-12-07T14:37:43;3.80;99.90
53800;DHT22;39708;53.210;6.948;2022-12-07T14:40:17;3.80;99.90
53800;DHT22;39708;53.210;6.948;2022-12-07T14:42:45;3.50;99.90
53800;DHT22;39708;53.210;6.948;2022-12-07T14:45:18;3.40;99.90
53800;DHT22;39708;53.210;6.948;2022-12-07T14:47:45;3.10;99.90
53800;DHT22;39708;53.210;6.948;2022-12-07T14:50:16;2.70;99.90
53800;DHT22;39708;53.210;6.948;2022-12-07T14:52:50;2.40;99.90
53800;DHT22;39708;53.210;6.948;2022-12-07T14:55:26;2.00;99.90
53800;DHT22;39708;53.210;6.948;2022-12-07T14:57:53;1.80;99.90
53800;DHT22;39708;53.210;6.948;2022-12-07T15:00:20;1.70;99.90
53800;DHT22;39708;53.210;6.948;2022-12-07T15:02:47;1.50;99.90
53800;DHT22;39708;53.210;6.948;2022-12-07T15:05:14;1.40;99.90
53800;DHT22;39708;53.210;6.948;2022-12-07T15:07:40;1.30;99.90
53800;DHT22;39708;53.210;6.948;2022-12-07T15:10:14;1.30;99.90
53800;DHT22;39708;53.210;6.948;2022-12-07T15:12:40;1.30;99.90
53800;DHT22;39708;53.210;6.948;2022-12-07T15:15:06;1.20;99.90
53800;DHT22;39708;53.210;6.948;2022-12-07T15:17:32;1.20;99.90
53800;DHT22;39708;53.210;6.948;2022-12-07T15:19:58;1.20;99.90
53800;DHT22;39708;53.210;6.948;2022-12-07T15:22:23;1.40;99.90
53800;DHT22;39708;53.210;6.948;2022-12-07T15:24:49;2.50;99.90
53800;DHT22;39708;53.210;6.948;2022-12-07T15:27:14;1.30;99.90
53800;DHT22;39708;53.210;6.948;2022-12-07T15:29:40;1.40;99.90
53800;DHT22;39708;53.210;6.948;2022-12-07T15:32:06;1.40;99.90
53800;DHT22;39708;53.210;6.948;2022-12-07T15:34:31;2.00;99.90
53800;DHT22;39708;53.210;6.948;2022-12-07T15:36:57;1.90;99.90
53800;DHT22;39708;53.210;6.948;2022-12-07T15:39:23;2.00;99.90
53800;DHT22;39708;53.210;6.948;2022-12-07T15:41:49;1.90;99.90
53800;DHT22;39708;53.210;6.948;2022-12-07T15:44:14;2.00;99.90
53800;DHT22;39708;53.210;6.948;2022-12-07T15:46:59;2.10;99.90
53800;DHT22;39708;53.210;6.948;2022-12-07T15:49:25;2.10;99.90
53800;DHT22;39708;53.210;6.948;2022-12-07T15:51:51;2.20;99.90
53800;DHT22;39708;53.210;6.948;2022-12-07T15:54:23;2.90;99.90
53800;DHT22;39708;53.210;6.948;2022-12-07T15:56:49;2.40;99.90
53800;DHT22;39708;53.210;6.948;2022-12-07T15:59:15;2.60;99.90
53800;DHT22;39708;53.210;6.948;2022-12-07T16:01:40;2.00;99.90
53800;DHT22;39708;53.210;6.948;2022-12-07T16:04:06;1.70;99.90
53800;DHT22;39708;53.210;6.948;2022-12-07T16:06:32;1.40;99.90
53800;DHT22;39708;53.210;6.948;2022-12-07T16:08:57;1.20;99.90
53800;DHT22;39708;53.210;6.948;2022-12-07T16:11:23;0.90;99.90
53800;DHT22;39708;53.210;6.948;2022-12-07T16:13:49;0.80;99.90
53800;DHT22;39708;53.210;6.948;2022-12-07T16:16:17;0.70;99.90
53800;DHT22;39708;53.210;6.948;2022-12-07T16:18:44;1.10;99.90
53800;DHT22;39708;53.210;6.948;2022-12-07T16:21:10;0.80;99.90
53800;DHT22;39708;53.210;6.948;2022-12-07T16:23:36;0.90;99.90
53800;DHT22;39708;53.210;6.948;2022-12-07T16:26:09;2.40;99.90
53800;DHT22;39708;53.210;6.948;2022-12-07T16:28:35;1.30;99.90
53800;DHT22;39708;53.210;6.948;2022-12-07T16:31:09;1.10;99.90
53800;DHT22;39708;53.210;6.948;2022-12-07T16:33:36;1.20;99.90
53800;DHT22;39708;53.210;6.948;2022-12-07T16:36:03;1.90;99.90
53800;DHT22;39708;53.210;6.948;2022-12-07T16:38:29;0.90;99.90
53800;DHT22;39708;53.210;6.948;2022-12-07T16:40:55;0.80;99.90
53800;DHT22;39708;53.210;6.948;2022-12-07T16:43:21;1.00;99.90
53800;DHT22;39708;53.210;6.948;2022-12-07T16:45:47;1.00;99.90
53800;DHT22;39708;53.210;6.948;2022-12-07T16:48:14;1.20;99.90
53800;DHT22;39708;53.210;6.948;2022-12-07T16:50:41;1.30;99.90
53800;DHT22;39708;53.210;6.948;2022-12-07T16:53:11;1.50;99.90
53800;DHT22;39708;53.210;6.948;2022-12-07T16:55:42;1.60;99.90
53800;DHT22;39708;53.210;6.948;2022-12-07T16:58:08;1.70;99.90
53800;DHT22;39708;53.210;6.948;2022-12-07T17:00:34;1.30;99.90
53800;DHT22;39708;53.210;6.948;2022-12-07T17:03:00;0.90;99.90
53800;DHT22;39708;53.210;6.948;2022-12-07T17:05:26;0.60;99.90
53800;DHT22;39708;53.210;6.948;2022-12-07T17:07:54;0.40;99.90
53800;DHT22;39708;53.210;6.948;2022-12-07T17:10:21;0.50;99.90
53800;DHT22;39708;53.210;6.948;2022-12-07T17:12:47;0.50;99.90
53800;DHT22;39708;53.210;6.948;2022-12-07T17:15:13;0.30;99.90
53800;DHT22;39708;53.210;6.948;2022-12-07T17:17:43;0.30;99.90
53800;DHT22;39708;53.210;6.948;2022-12-07T17:20:09;0.40;99.90
53800;DHT22;39708;53.210;6.948;2022-12-07T17:22:34;0.50;99.90
53800;DHT22;39708;53.210;6.948;2022-12-07T17:25:00;0.50;99.90
53800;DHT22;39708;53.210;6.948;2022-12-07T17:27:26;0.70;99.90
53800;DHT22;39708;53.210;6.948;2022-12-07T17:29:51;0.80;99.90
53800;DHT22;39708;53.210;6.948;2022-12-07T17:32:17;0.80;99.90
53800;DHT22;39708;53.210;6.948;2022-12-07T17:34:42;0.80;99.90
53800;DHT22;39708;53.210;6.948;2022-12-07T17:37:08;0.80;99.90
53800;DHT22;39708;53.210;6.948;2022-12-07T17:39:34;0.90;99.90
53800;DHT22;39708;53.210;6.948;2022-12-07T17:41:59;0.80;99.90
53800;DHT22;39708;53.210;6.948;2022-12-07T17:44:43;0.80;99.90
53800;DHT22;39708;53.210;6.948;2022-12-07T17:47:09;0.80;99.90
53800;DHT22;39708;53.210;6.948;2022-12-07T17:49:35;0.80;99.90
53800;DHT22;39708;53.210;6.948;2022-12-07T17:52:01;0.80;99.90
53800;DHT22;39708;53.210;6.948;2022-12-07T17:54:45;0.90;99.90
53800;DHT22;39708;53.210;6.948;2022-12-07T17:57:11;1.00;99.90